sensor_id;sensor_type;location;lat;lon;timestamp;P1;durP1;ratioP1;P2;durP2;ratioP2
54555;SDS011;57291;37.520;15.106;2023-08-20T00:01:37;16.83;;;10.98;;
54555;SDS011;57291;37.520;15.106;2023-08-20T00:04:05;15.27;;;10.45;;
54555;SDS011;57291;37.520;15.106;2023-08-20T00:06:32;15.52;;;10.05;;
54555;SDS011;57291;37.520;15.106;2023-08-20T00:09:00;17.58;;;11.07;;
54555;SDS011;57291;37.520;15.106;2023-08-20T00:11:27;16.08;;;11.02;;
54555;SDS011;57291;37.520;15.106;2023-08-20T00:13:54;16.67;;;11.48;;
54555;SDS011;57291;37.520;15.106;2023-08-20T00:16:21;16.45;;;11.57;;
54555;SDS011;57291;37.520;15.106;2023-08-20T00:18:49;16.27;;;11.32;;
54555;SDS011;57291;37.520;15.106;2023-08-20T00:21:16;15.98;;;10.02;;
54555;SDS011;57291;37.520;15.106;2023-08-20T00:23:43;16.80;;;11.13;;
54555;SDS011;57291;37.520;15.106;2023-08-20T00:26:11;13.93;;;10.27;;
54555;SDS011;57291;37.520;15.106;2023-08-20T00:28:39;15.38;;;9.57;;
54555;SDS011;57291;37.520;15.106;2023-08-20T00:31:06;14.50;;;9.55;;
54555;SDS011;57291;37.520;15.106;2023-08-20T00:33:34;18.55;;;11.63;;
54555;SDS011;57291;37.520;15.106;2023-08-20T00:36:02;15.60;;;9.68;;
54555;SDS011;57291;37.520;15.106;2023-08-20T00:38:29;15.10;;;9.02;;
54555;SDS011;57291;37.520;15.106;2023-08-20T00:40:57;16.52;;;9.65;;
54555;SDS011;57291;37.520;15.106;2023-08-20T00:43:24;14.48;;;7.88;;
54555;SDS011;57291;37.520;15.106;2023-08-20T00:45:51;12.60;;;8.23;;
54555;SDS011;57291;37.520;15.106;2023-08-20T00:48:19;14.15;;;8.25;;
54555;SDS011;57291;37.520;15.106;2023-08-20T00:50:46;14.85;;;8.30;;
54555;SDS011;57291;37.520;15.106;2023-08-20T00:53:13;11.27;;;7.95;;
54555;SDS011;57291;37.520;15.106;2023-08-20T00:55:44;11.98;;;7.97;;
54555;SDS011;57291;37.520;15.106;2023-08-20T00:58:12;11.98;;;8.30;;
54555;SDS011;57291;37.520;15.106;2023-08-20T01:00:39;12.20;;;8.10;;
54555;SDS011;57291;37.520;15.106;2023-08-20T01:03:07;12.13;;;8.75;;
54555;SDS011;57291;37.520;15.106;2023-08-20T01:05:36;13.15;;;8.10;;
54555;SDS011;57291;37.520;15.106;2023-08-20T01:13:54;13.68;;;8.32;;
54555;SDS011;57291;37.520;15.106;2023-08-20T01:16:21;10.95;;;7.80;;
54555;SDS011;57291;37.520;15.106;2023-08-20T01:18:48;15.88;;;8.63;;
54555;SDS011;57291;37.520;15.106;2023-08-20T01:21:36;14.40;;;8.18;;
54555;SDS011;57291;37.520;15.106;2023-08-20T01:27:06;13.00;;;8.40;;
54555;SDS011;57291;37.520;15.106;2023-08-20T01:29:36;14.50;;;7.90;;
54555;SDS011;57291;37.520;15.106;2023-08-20T01:32:05;13.93;;;7.72;;
54555;SDS011;57291;37.520;15.106;2023-08-20T01:34:36;12.52;;;8.13;;
54555;SDS011;57291;37.520;15.106;2023-08-20T01:37:03;16.13;;;7.75;;
54555;SDS011;57291;37.520;15.106;2023-08-20T01:39:30;14.25;;;8.13;;
54555;SDS011;57291;37.520;15.106;2023-08-20T01:41:57;12.30;;;8.07;;
54555;SDS011;57291;37.520;15.106;2023-08-20T01:44:25;14.73;;;8.13;;
54555;SDS011;57291;37.520;15.106;2023-08-20T01:46:52;13.85;;;7.80;;
54555;SDS011;57291;37.520;15.106;2023-08-20T01:49:20;14.85;;;8.32;;
54555;SDS011;57291;37.520;15.106;2023-08-20T01:51:47;14.48;;;8.63;;
54555;SDS011;57291;37.520;15.106;2023-08-20T01:54:14;10.68;;;7.18;;
54555;SDS011;57291;37.520;15.106;2023-08-20T01:56:41;11.32;;;7.60;;
54555;SDS011;57291;37.520;15.106;2023-08-20T01:59:08;12.18;;;7.13;;
54555;SDS011;57291;37.520;15.106;2023-08-20T02:01:36;12.50;;;7.47;;
54555;SDS011;57291;37.520;15.106;2023-08-20T02:04:03;12.15;;;6.90;;
54555;SDS011;57291;37.520;15.106;2023-08-20T02:06:30;12.88;;;7.88;;
54555;SDS011;57291;37.520;15.106;2023-08-20T02:08:57;9.50;;;7.18;;
54555;SDS011;57291;37.520;15.106;2023-08-20T02:11:24;13.20;;;7.47;;
54555;SDS011;57291;37.520;15.106;2023-08-20T02:13:52;13.18;;;8.15;;
54555;SDS011;57291;37.520;15.106;2023-08-20T02:16:19;17.02;;;7.25;;
54555;SDS011;57291;37.520;15.106;2023-08-20T02:18:46;13.60;;;7.55;;
54555;SDS011;57291;37.520;15.106;2023-08-20T02:21:14;12.18;;;7.10;;
54555;SDS011;57291;37.520;15.106;2023-08-20T02:23:41;12.85;;;7.47;;
54555;SDS011;57291;37.520;15.106;2023-08-20T02:26:08;11.23;;;7.07;;
54555;SDS011;57291;37.520;15.106;2023-08-20T02:28:35;11.15;;;7.05;;
54555;SDS011;57291;37.520;15.106;2023-08-20T02:31:05;13.57;;;7.57;;
54555;SDS011;57291;37.520;15.106;2023-08-20T02:33:32;12.30;;;7.22;;
54555;SDS011;57291;37.520;15.106;2023-08-20T02:36:04;12.32;;;8.00;;
54555;SDS011;57291;37.520;15.106;2023-08-20T02:38:32;11.33;;;7.77;;
54555;SDS011;57291;37.520;15.106;2023-08-20T02:40:59;12.45;;;7.75;;
54555;SDS011;57291;37.520;15.106;2023-08-20T02:43:28;12.93;;;9.10;;
54555;SDS011;57291;37.520;15.106;2023-08-20T02:45:56;13.20;;;8.77;;
54555;SDS011;57291;37.520;15.106;2023-08-20T02:48:23;10.50;;;7.72;;
54555;SDS011;57291;37.520;15.106;2023-08-20T02:50:53;11.40;;;7.93;;
54555;SDS011;57291;37.520;15.106;2023-08-20T02:53:21;11.63;;;8.10;;
54555;SDS011;57291;37.520;15.106;2023-08-20T02:55:49;11.32;;;8.32;;
54555;SDS011;57291;37.520;15.106;2023-08-20T02:58:16;17.40;;;9.57;;
54555;SDS011;57291;37.520;15.106;2023-08-20T03:00:43;14.38;;;10.43;;
54555;SDS011;57291;37.520;15.106;2023-08-20T03:03:12;15.05;;;10.55;;
54555;SDS011;57291;37.520;15.106;2023-08-20T03:05:41;17.90;;;11.85;;
54555;SDS011;57291;37.520;15.106;2023-08-20T03:08:08;17.73;;;10.95;;
54555;SDS011;57291;37.520;15.106;2023-08-20T03:10:36;14.63;;;11.40;;
54555;SDS011;57291;37.520;15.106;2023-08-20T03:13:03;17.83;;;11.65;;
54555;SDS011;57291;37.520;15.106;2023-08-20T03:15:31;20.40;;;11.48;;
54555;SDS011;57291;37.520;15.106;2023-08-20T03:17:58;17.75;;;11.77;;
54555;SDS011;57291;37.520;15.106;2023-08-20T03:20:25;14.95;;;11.07;;
54555;SDS011;57291;37.520;15.106;2023-08-20T03:22:55;15.95;;;11.55;;
54555;SDS011;57291;37.520;15.106;2023-08-20T03:25:22;15.00;;;11.23;;
54555;SDS011;57291;37.520;15.106;2023-08-20T03:27:51;17.33;;;11.30;;
54555;SDS011;57291;37.520;15.106;2023-08-20T03:30:18;17.48;;;11.00;;
54555;SDS011;57291;37.520;15.106;2023-08-20T03:32:45;16.52;;;11.13;;
54555;SDS011;57291;37.520;15.106;2023-08-20T03:35:13;14.80;;;10.27;;
54555;SDS011;57291;37.520;15.106;2023-08-20T03:37:41;12.82;;;10.35;;
54555;SDS011;57291;37.520;15.106;2023-08-20T03:40:09;13.93;;;9.68;;
54555;SDS011;57291;37.520;15.106;2023-08-20T03:42:37;11.82;;;9.18;;
54555;SDS011;57291;37.520;15.106;2023-08-20T03:45:04;14.95;;;9.98;;
54555;SDS011;57291;37.520;15.106;2023-08-20T03:47:32;12.07;;;8.88;;
54555;SDS011;57291;37.520;15.106;2023-08-20T03:50:00;13.85;;;9.10;;
54555;SDS011;57291;37.520;15.106;2023-08-20T03:52:27;11.75;;;9.15;;
54555;SDS011;57291;37.520;15.106;2023-08-20T03:54:54;14.02;;;9.88;;
54555;SDS011;57291;37.520;15.106;2023-08-20T03:57:22;12.32;;;9.32;;
54555;SDS011;57291;37.520;15.106;2023-08-20T03:59:49;13.18;;;8.90;;
54555;SDS011;57291;37.520;15.106;2023-08-20T04:02:17;13.10;;;9.00;;
54555;SDS011;57291;37.520;15.106;2023-08-20T04:04:44;13.02;;;10.15;;
54555;SDS011;57291;37.520;15.106;2023-08-20T04:07:12;13.95;;;10.40;;
54555;SDS011;57291;37.520;15.106;2023-08-20T04:09:39;16.27;;;9.48;;
54555;SDS011;57291;37.520;15.106;2023-08-20T04:12:06;14.85;;;9.52;;
54555;SDS011;57291;37.520;15.106;2023-08-20T04:14:36;15.45;;;9.73;;
54555;SDS011;57291;37.520;15.106;2023-08-20T04:17:03;14.95;;;9.05;;
54555;SDS011;57291;37.520;15.106;2023-08-20T04:19:31;14.38;;;9.52;;
54555;SDS011;57291;37.520;15.106;2023-08-20T04:21:58;11.27;;;8.43;;
54555;SDS011;57291;37.520;15.106;2023-08-20T04:24:25;13.45;;;8.98;;
54555;SDS011;57291;37.520;15.106;2023-08-20T04:26:53;12.63;;;8.18;;
54555;SDS011;57291;37.520;15.106;2023-08-20T04:29:25;15.18;;;7.93;;
54555;SDS011;57291;37.520;15.106;2023-08-20T04:31:52;11.52;;;7.65;;
54555;SDS011;57291;37.520;15.106;2023-08-20T04:34:19;9.43;;;7.55;;
54555;SDS011;57291;37.520;15.106;2023-08-20T04:36:50;15.73;;;8.27;;
54555;SDS011;57291;37.520;15.106;2023-08-20T04:39:19;13.15;;;8.20;;
54555;SDS011;57291;37.520;15.106;2023-08-20T04:41:49;11.80;;;8.15;;
54555;SDS011;57291;37.520;15.106;2023-08-20T04:44:18;12.13;;;7.25;;
54555;SDS011;57291;37.520;15.106;2023-08-20T04:46:46;15.73;;;7.82;;
54555;SDS011;57291;37.520;15.106;2023-08-20T04:49:13;11.60;;;8.07;;
54555;SDS011;57291;37.520;15.106;2023-08-20T04:51:40;13.38;;;8.07;;
54555;SDS011;57291;37.520;15.106;2023-08-20T04:54:08;10.90;;;7.35;;
54555;SDS011;57291;37.520;15.106;2023-08-20T04:56:35;11.35;;;7.22;;
54555;SDS011;57291;37.520;15.106;2023-08-20T04:59:02;9.05;;;7.00;;
54555;SDS011;57291;37.520;15.106;2023-08-20T05:01:52;14.88;;;6.78;;
54555;SDS011;57291;37.520;15.106;2023-08-20T05:04:33;13.30;;;7.15;;
54555;SDS011;57291;37.520;15.106;2023-08-20T05:07:01;8.60;;;6.43;;
54555;SDS011;57291;37.520;15.106;2023-08-20T05:09:30;12.18;;;6.68;;
54555;SDS011;57291;37.520;15.106;2023-08-20T05:11:57;12.75;;;7.38;;
54555;SDS011;57291;37.520;15.106;2023-08-20T05:14:24;13.05;;;7.30;;
54555;SDS011;57291;37.520;15.106;2023-08-20T05:16:52;11.45;;;7.53;;
54555;SDS011;57291;37.520;15.106;2023-08-20T05:19:19;11.75;;;7.63;;
54555;SDS011;57291;37.520;15.106;2023-08-20T05:21:46;9.77;;;6.43;;
54555;SDS011;57291;37.520;15.106;2023-08-20T05:24:14;12.60;;;6.15;;
54555;SDS011;57291;37.520;15.106;2023-08-20T05:26:42;9.70;;;6.43;;
54555;SDS011;57291;37.520;15.106;2023-08-20T05:29:09;11.07;;;7.18;;
54555;SDS011;57291;37.520;15.106;2023-08-20T05:31:37;16.05;;;9.73;;
54555;SDS011;57291;37.520;15.106;2023-08-20T05:34:04;13.82;;;8.68;;
54555;SDS011;57291;37.520;15.106;2023-08-20T05:36:32;14.10;;;8.98;;
54555;SDS011;57291;37.520;15.106;2023-08-20T05:38:59;11.57;;;7.93;;
54555;SDS011;57291;37.520;15.106;2023-08-20T05:41:28;12.52;;;8.30;;
54555;SDS011;57291;37.520;15.106;2023-08-20T05:43:56;17.20;;;8.07;;
54555;SDS011;57291;37.520;15.106;2023-08-20T05:46:24;14.05;;;7.40;;
54555;SDS011;57291;37.520;15.106;2023-08-20T05:48:53;9.57;;;7.55;;
54555;SDS011;57291;37.520;15.106;2023-08-20T05:51:21;15.13;;;8.93;;
54555;SDS011;57291;37.520;15.106;2023-08-20T05:53:48;12.68;;;7.78;;
54555;SDS011;57291;37.520;15.106;2023-08-20T05:56:15;16.20;;;8.73;;
54555;SDS011;57291;37.520;15.106;2023-08-20T05:58:42;11.23;;;7.22;;
54555;SDS011;57291;37.520;15.106;2023-08-20T06:01:10;12.07;;;7.90;;
54555;SDS011;57291;37.520;15.106;2023-08-20T06:03:38;14.27;;;8.23;;
54555;SDS011;57291;37.520;15.106;2023-08-20T06:06:05;14.98;;;7.05;;
54555;SDS011;57291;37.520;15.106;2023-08-20T06:08:34;10.93;;;6.53;;
54555;SDS011;57291;37.520;15.106;2023-08-20T06:11:01;10.18;;;6.45;;
54555;SDS011;57291;37.520;15.106;2023-08-20T06:13:29;14.23;;;7.30;;
54555;SDS011;57291;37.520;15.106;2023-08-20T06:15:56;11.75;;;6.50;;
54555;SDS011;57291;37.520;15.106;2023-08-20T06:18:23;11.30;;;7.38;;
54555;SDS011;57291;37.520;15.106;2023-08-20T06:20:50;13.98;;;6.80;;
54555;SDS011;57291;37.520;15.106;2023-08-20T06:23:17;23.80;;;8.27;;
54555;SDS011;57291;37.520;15.106;2023-08-20T06:26:05;10.48;;;6.70;;
54555;SDS011;57291;37.520;15.106;2023-08-20T06:28:32;12.55;;;6.72;;
54555;SDS011;57291;37.520;15.106;2023-08-20T06:30:59;9.18;;;6.28;;
54555;SDS011;57291;37.520;15.106;2023-08-20T06:33:26;10.77;;;5.72;;
54555;SDS011;57291;37.520;15.106;2023-08-20T06:35:53;9.25;;;5.80;;
54555;SDS011;57291;37.520;15.106;2023-08-20T06:38:20;8.88;;;4.97;;
54555;SDS011;57291;37.520;15.106;2023-08-20T06:40:48;9.38;;;5.57;;
54555;SDS011;57291;37.520;15.106;2023-08-20T06:43:15;7.80;;;5.07;;
54555;SDS011;57291;37.520;15.106;2023-08-20T06:45:42;9.95;;;5.03;;
54555;SDS011;57291;37.520;15.106;2023-08-20T06:48:09;9.45;;;5.15;;
54555;SDS011;57291;37.520;15.106;2023-08-20T06:50:36;8.75;;;5.60;;
54555;SDS011;57291;37.520;15.106;2023-08-20T06:53:04;10.52;;;5.90;;
54555;SDS011;57291;37.520;15.106;2023-08-20T06:55:32;9.85;;;5.75;;
54555;SDS011;57291;37.520;15.106;2023-08-20T06:57:59;12.63;;;6.45;;
54555;SDS011;57291;37.520;15.106;2023-08-20T07:00:26;9.20;;;6.03;;
54555;SDS011;57291;37.520;15.106;2023-08-20T07:02:53;13.85;;;6.88;;
54555;SDS011;57291;37.520;15.106;2023-08-20T07:05:20;12.32;;;6.93;;
54555;SDS011;57291;37.520;15.106;2023-08-20T07:07:47;9.80;;;6.53;;
54555;SDS011;57291;37.520;15.106;2023-08-20T07:10:14;13.00;;;6.38;;
54555;SDS011;57291;37.520;15.106;2023-08-20T07:12:42;10.60;;;6.15;;
54555;SDS011;57291;37.520;15.106;2023-08-20T07:15:09;11.10;;;6.60;;
54555;SDS011;57291;37.520;15.106;2023-08-20T07:17:36;11.55;;;6.15;;
54555;SDS011;57291;37.520;15.106;2023-08-20T07:20:05;7.45;;;5.50;;
54555;SDS011;57291;37.520;15.106;2023-08-20T07:22:33;9.35;;;5.45;;
54555;SDS011;57291;37.520;15.106;2023-08-20T07:25:00;11.65;;;6.22;;
54555;SDS011;57291;37.520;15.106;2023-08-20T07:27:27;8.30;;;5.28;;
54555;SDS011;57291;37.520;15.106;2023-08-20T07:29:54;11.05;;;5.80;;
54555;SDS011;57291;37.520;15.106;2023-08-20T07:32:21;10.35;;;4.88;;
54555;SDS011;57291;37.520;15.106;2023-08-20T07:34:48;8.48;;;5.18;;
54555;SDS011;57291;37.520;15.106;2023-08-20T07:37:16;11.38;;;5.60;;
54555;SDS011;57291;37.520;15.106;2023-08-20T07:39:43;10.27;;;6.05;;
54555;SDS011;57291;37.520;15.106;2023-08-20T07:42:11;8.98;;;5.63;;
54555;SDS011;57291;37.520;15.106;2023-08-20T07:44:38;11.40;;;5.78;;
54555;SDS011;57291;37.520;15.106;2023-08-20T07:47:06;11.30;;;6.03;;
54555;SDS011;57291;37.520;15.106;2023-08-20T07:49:33;13.60;;;6.25;;
54555;SDS011;57291;37.520;15.106;2023-08-20T07:52:00;8.80;;;5.30;;
54555;SDS011;57291;37.520;15.106;2023-08-20T07:54:27;9.63;;;5.80;;
54555;SDS011;57291;37.520;15.106;2023-08-20T07:56:55;11.07;;;6.18;;
54555;SDS011;57291;37.520;15.106;2023-08-20T07:59:22;9.90;;;6.25;;
54555;SDS011;57291;37.520;15.106;2023-08-20T08:01:49;14.82;;;6.03;;
54555;SDS011;57291;37.520;15.106;2023-08-20T08:04:16;7.72;;;5.90;;
54555;SDS011;57291;37.520;15.106;2023-08-20T08:06:43;12.82;;;6.80;;
54555;SDS011;57291;37.520;15.106;2023-08-20T08:11:49;9.18;;;6.00;;
54555;SDS011;57291;37.520;15.106;2023-08-20T08:14:16;9.00;;;6.35;;
54555;SDS011;57291;37.520;15.106;2023-08-20T08:16:44;11.15;;;5.93;;
54555;SDS011;57291;37.520;15.106;2023-08-20T08:19:12;11.30;;;6.38;;
54555;SDS011;57291;37.520;15.106;2023-08-20T08:21:40;9.57;;;6.40;;
54555;SDS011;57291;37.520;15.106;2023-08-20T08:24:08;11.93;;;6.97;;
54555;SDS011;57291;37.520;15.106;2023-08-20T08:26:35;11.18;;;8.10;;
54555;SDS011;57291;37.520;15.106;2023-08-20T08:29:03;11.80;;;8.27;;
54555;SDS011;57291;37.520;15.106;2023-08-20T08:31:31;10.90;;;8.60;;
54555;SDS011;57291;37.520;15.106;2023-08-20T08:33:59;14.88;;;9.25;;
54555;SDS011;57291;37.520;15.106;2023-08-20T08:36:27;13.90;;;9.20;;
54555;SDS011;57291;37.520;15.106;2023-08-20T08:38:55;15.13;;;9.07;;
54555;SDS011;57291;37.520;15.106;2023-08-20T08:41:22;11.43;;;8.90;;
54555;SDS011;57291;37.520;15.106;2023-08-20T08:43:53;14.25;;;9.07;;
54555;SDS011;57291;37.520;15.106;2023-08-20T08:46:22;12.48;;;8.88;;
54555;SDS011;57291;37.520;15.106;2023-08-20T08:48:51;13.13;;;10.52;;
54555;SDS011;57291;37.520;15.106;2023-08-20T08:51:19;15.13;;;10.77;;
54555;SDS011;57291;37.520;15.106;2023-08-20T08:53:49;15.60;;;11.68;;
54555;SDS011;57291;37.520;15.106;2023-08-20T08:56:16;12.75;;;9.88;;
54555;SDS011;57291;37.520;15.106;2023-08-20T08:58:43;17.90;;;10.45;;
54555;SDS011;57291;37.520;15.106;2023-08-20T09:01:10;17.60;;;11.25;;
54555;SDS011;57291;37.520;15.106;2023-08-20T09:03:38;13.38;;;10.88;;
54555;SDS011;57291;37.520;15.106;2023-08-20T09:06:09;15.13;;;11.57;;
54555;SDS011;57291;37.520;15.106;2023-08-20T09:08:36;14.93;;;12.05;;
54555;SDS011;57291;37.520;15.106;2023-08-20T09:11:04;18.35;;;12.13;;
54555;SDS011;57291;37.520;15.106;2023-08-20T09:13:38;18.40;;;12.38;;
54555;SDS011;57291;37.520;15.106;2023-08-20T09:16:10;15.65;;;11.38;;
54555;SDS011;57291;37.520;15.106;2023-08-20T09:18:39;13.13;;;11.23;;
54555;SDS011;57291;37.520;15.106;2023-08-20T09:21:13;16.40;;;12.32;;
54555;SDS011;57291;37.520;15.106;2023-08-20T09:23:44;17.65;;;12.48;;
54555;SDS011;57291;37.520;15.106;2023-08-20T09:26:13;21.88;;;12.48;;
54555;SDS011;57291;37.520;15.106;2023-08-20T09:28:41;19.35;;;11.93;;
54555;SDS011;57291;37.520;15.106;2023-08-20T09:31:10;17.58;;;13.00;;
54555;SDS011;57291;37.520;15.106;2023-08-20T09:33:50;16.85;;;12.73;;
54555;SDS011;57291;37.520;15.106;2023-08-20T09:36:18;18.48;;;13.32;;
54555;SDS011;57291;37.520;15.106;2023-08-20T09:38:48;17.23;;;13.80;;
54555;SDS011;57291;37.520;15.106;2023-08-20T09:41:18;19.75;;;12.80;;
54555;SDS011;57291;37.520;15.106;2023-08-20T09:43:46;16.35;;;13.73;;
54555;SDS011;57291;37.520;15.106;2023-08-20T09:46:15;16.83;;;13.02;;
54555;SDS011;57291;37.520;15.106;2023-08-20T09:48:47;19.52;;;14.70;;
54555;SDS011;57291;37.520;15.106;2023-08-20T09:51:19;17.83;;;13.70;;
54555;SDS011;57291;37.520;15.106;2023-08-20T09:54:12;20.65;;;15.10;;
54555;SDS011;57291;37.520;15.106;2023-08-20T09:56:46;20.27;;;14.88;;
54555;SDS011;57291;37.520;15.106;2023-08-20T09:59:20;19.40;;;14.32;;
54555;SDS011;57291;37.520;15.106;2023-08-20T10:01:48;20.63;;;15.75;;
54555;SDS011;57291;37.520;15.106;2023-08-20T10:04:17;23.50;;;16.45;;
54555;SDS011;57291;37.520;15.106;2023-08-20T10:06:46;18.90;;;14.85;;
54555;SDS011;57291;37.520;15.106;2023-08-20T10:09:14;21.75;;;13.65;;
54555;SDS011;57291;37.520;15.106;2023-08-20T10:11:43;25.05;;;15.65;;
54555;SDS011;57291;37.520;15.106;2023-08-20T10:14:11;19.40;;;13.48;;
54555;SDS011;57291;37.520;15.106;2023-08-20T10:16:38;16.67;;;13.57;;
54555;SDS011;57291;37.520;15.106;2023-08-20T10:19:06;16.48;;;12.90;;
54555;SDS011;57291;37.520;15.106;2023-08-20T10:21:35;16.45;;;13.00;;
54555;SDS011;57291;37.520;15.106;2023-08-20T10:24:03;13.52;;;11.63;;
54555;SDS011;57291;37.520;15.106;2023-08-20T10:26:33;18.95;;;12.95;;
54555;SDS011;57291;37.520;15.106;2023-08-20T10:32:08;17.27;;;12.25;;
54555;SDS011;57291;37.520;15.106;2023-08-20T10:34:38;14.43;;;10.60;;
54555;SDS011;57291;37.520;15.106;2023-08-20T10:37:10;15.98;;;12.07;;
54555;SDS011;57291;37.520;15.106;2023-08-20T10:39:39;14.50;;;11.40;;
54555;SDS011;57291;37.520;15.106;2023-08-20T10:47:50;12.63;;;10.15;;
54555;SDS011;57291;37.520;15.106;2023-08-20T10:50:18;16.05;;;9.70;;
54555;SDS011;57291;37.520;15.106;2023-08-20T10:52:49;15.50;;;8.95;;
54555;SDS011;57291;37.520;15.106;2023-08-20T10:55:22;13.90;;;9.60;;
54555;SDS011;57291;37.520;15.106;2023-08-20T10:57:56;13.23;;;9.02;;
54555;SDS011;57291;37.520;15.106;2023-08-20T11:00:26;14.18;;;10.00;;
54555;SDS011;57291;37.520;15.106;2023-08-20T11:02:55;13.80;;;9.77;;
54555;SDS011;57291;37.520;15.106;2023-08-20T11:05:22;14.38;;;9.57;;
54555;SDS011;57291;37.520;15.106;2023-08-20T11:07:50;14.75;;;10.48;;
54555;SDS011;57291;37.520;15.106;2023-08-20T11:10:17;14.63;;;10.25;;
54555;SDS011;57291;37.520;15.106;2023-08-20T11:12:47;11.68;;;9.75;;
54555;SDS011;57291;37.520;15.106;2023-08-20T11:15:15;16.17;;;10.15;;
54555;SDS011;57291;37.520;15.106;2023-08-20T11:17:45;14.98;;;9.95;;
54555;SDS011;57291;37.520;15.106;2023-08-20T11:20:16;14.02;;;9.45;;
54555;SDS011;57291;37.520;15.106;2023-08-20T11:22:44;13.13;;;9.70;;
54555;SDS011;57291;37.520;15.106;2023-08-20T11:25:11;13.57;;;9.43;;
54555;SDS011;57291;37.520;15.106;2023-08-20T11:27:43;12.45;;;9.57;;
54555;SDS011;57291;37.520;15.106;2023-08-20T11:30:10;13.68;;;9.70;;
54555;SDS011;57291;37.520;15.106;2023-08-20T11:32:41;14.18;;;9.82;;
54555;SDS011;57291;37.520;15.106;2023-08-20T11:35:10;12.43;;;10.55;;
54555;SDS011;57291;37.520;15.106;2023-08-20T11:37:38;13.20;;;10.30;;
54555;SDS011;57291;37.520;15.106;2023-08-20T11:40:08;14.15;;;10.20;;
54555;SDS011;57291;37.520;15.106;2023-08-20T11:42:35;13.57;;;9.07;;
54555;SDS011;57291;37.520;15.106;2023-08-20T11:45:02;13.27;;;9.77;;
54555;SDS011;57291;37.520;15.106;2023-08-20T11:47:30;17.40;;;10.75;;
54555;SDS011;57291;37.520;15.106;2023-08-20T11:50:06;14.00;;;10.10;;
54555;SDS011;57291;37.520;15.106;2023-08-20T11:52:34;15.63;;;10.57;;
54555;SDS011;57291;37.520;15.106;2023-08-20T11:55:03;13.23;;;10.23;;
54555;SDS011;57291;37.520;15.106;2023-08-20T11:57:30;12.18;;;9.73;;
54555;SDS011;57291;37.520;15.106;2023-08-20T12:00:02;13.57;;;9.93;;
54555;SDS011;57291;37.520;15.106;2023-08-20T12:02:42;14.25;;;10.18;;
54555;SDS011;57291;37.520;15.106;2023-08-20T12:05:10;12.43;;;9.23;;
54555;SDS011;57291;37.520;15.106;2023-08-20T12:07:37;12.15;;;10.85;;
54555;SDS011;57291;37.520;15.106;2023-08-20T12:10:20;14.55;;;10.35;;
54555;SDS011;57291;37.520;15.106;2023-08-20T12:12:48;13.55;;;10.38;;
54555;SDS011;57291;37.520;15.106;2023-08-20T12:15:16;14.63;;;9.88;;
54555;SDS011;57291;37.520;15.106;2023-08-20T12:18:01;15.50;;;11.00;;
54555;SDS011;57291;37.520;15.106;2023-08-20T12:20:33;14.30;;;10.35;;
54555;SDS011;57291;37.520;15.106;2023-08-20T12:23:02;12.60;;;10.45;;
54555;SDS011;57291;37.520;15.106;2023-08-20T12:25:31;12.27;;;10.10;;
54555;SDS011;57291;37.520;15.106;2023-08-20T12:28:03;14.10;;;9.90;;
54555;SDS011;57291;37.520;15.106;2023-08-20T12:30:32;15.02;;;9.95;;
54555;SDS011;57291;37.520;15.106;2023-08-20T12:33:04;17.15;;;10.48;;
54555;SDS011;57291;37.520;15.106;2023-08-20T12:35:33;15.32;;;9.82;;
54555;SDS011;57291;37.520;15.106;2023-08-20T12:38:01;13.32;;;10.52;;
54555;SDS011;57291;37.520;15.106;2023-08-20T12:40:28;11.32;;;10.13;;
54555;SDS011;57291;37.520;15.106;2023-08-20T12:42:56;14.10;;;10.43;;
54555;SDS011;57291;37.520;15.106;2023-08-20T12:45:23;13.15;;;9.90;;
54555;SDS011;57291;37.520;15.106;2023-08-20T12:47:50;17.42;;;10.80;;
54555;SDS011;57291;37.520;15.106;2023-08-20T12:50:17;17.65;;;10.63;;
54555;SDS011;57291;37.520;15.106;2023-08-20T12:52:45;13.55;;;10.88;;
54555;SDS011;57291;37.520;15.106;2023-08-20T12:55:13;14.70;;;10.45;;
54555;SDS011;57291;37.520;15.106;2023-08-20T12:57:51;17.20;;;11.15;;
54555;SDS011;57291;37.520;15.106;2023-08-20T13:00:21;15.65;;;10.73;;
54555;SDS011;57291;37.520;15.106;2023-08-20T13:02:49;18.75;;;10.35;;
54555;SDS011;57291;37.520;15.106;2023-08-20T13:05:17;12.93;;;10.63;;
54555;SDS011;57291;37.520;15.106;2023-08-20T13:07:45;15.20;;;11.30;;
54555;SDS011;57291;37.520;15.106;2023-08-20T13:10:12;17.55;;;10.40;;
54555;SDS011;57291;37.520;15.106;2023-08-20T13:12:40;16.35;;;10.30;;
54555;SDS011;57291;37.520;15.106;2023-08-20T13:15:08;13.80;;;10.27;;
54555;SDS011;57291;37.520;15.106;2023-08-20T13:17:37;15.27;;;10.23;;
54555;SDS011;57291;37.520;15.106;2023-08-20T13:20:05;15.52;;;10.98;;
54555;SDS011;57291;37.520;15.106;2023-08-20T13:22:34;15.25;;;11.25;;
54555;SDS011;57291;37.520;15.106;2023-08-20T13:25:01;13.02;;;10.38;;
54555;SDS011;57291;37.520;15.106;2023-08-20T13:27:31;14.48;;;11.43;;
54555;SDS011;57291;37.520;15.106;2023-08-20T13:29:58;14.80;;;10.80;;
54555;SDS011;57291;37.520;15.106;2023-08-20T13:32:25;16.27;;;10.90;;
54555;SDS011;57291;37.520;15.106;2023-08-20T13:34:52;12.57;;;11.07;;
54555;SDS011;57291;37.520;15.106;2023-08-20T13:37:20;15.13;;;10.93;;
54555;SDS011;57291;37.520;15.106;2023-08-20T13:39:47;16.88;;;11.32;;
54555;SDS011;57291;37.520;15.106;2023-08-20T13:42:14;16.75;;;11.48;;
54555;SDS011;57291;37.520;15.106;2023-08-20T13:44:41;15.90;;;12.10;;
54555;SDS011;57291;37.520;15.106;2023-08-20T13:47:08;19.35;;;11.60;;
54555;SDS011;57291;37.520;15.106;2023-08-20T13:49:35;17.50;;;12.30;;
54555;SDS011;57291;37.520;15.106;2023-08-20T13:52:02;18.30;;;13.27;;
54555;SDS011;57291;37.520;15.106;2023-08-20T13:54:30;18.10;;;11.68;;
54555;SDS011;57291;37.520;15.106;2023-08-20T13:56:57;14.73;;;11.65;;
54555;SDS011;57291;37.520;15.106;2023-08-20T13:59:24;14.48;;;11.63;;
54555;SDS011;57291;37.520;15.106;2023-08-20T14:01:51;15.77;;;11.52;;
54555;SDS011;57291;37.520;15.106;2023-08-20T14:04:19;15.20;;;11.02;;
54555;SDS011;57291;37.520;15.106;2023-08-20T14:06:46;15.50;;;11.57;;
54555;SDS011;57291;37.520;15.106;2023-08-20T14:09:14;16.67;;;11.98;;
54555;SDS011;57291;37.520;15.106;2023-08-20T14:11:44;16.98;;;11.85;;
54555;SDS011;57291;37.520;15.106;2023-08-20T14:14:14;17.83;;;11.82;;
54555;SDS011;57291;37.520;15.106;2023-08-20T14:16:41;17.17;;;12.45;;
54555;SDS011;57291;37.520;15.106;2023-08-20T14:19:08;17.02;;;13.18;;
54555;SDS011;57291;37.520;15.106;2023-08-20T14:21:37;18.70;;;12.60;;
54555;SDS011;57291;37.520;15.106;2023-08-20T14:24:04;17.10;;;12.65;;
54555;SDS011;57291;37.520;15.106;2023-08-20T14:26:32;18.48;;;13.57;;
54555;SDS011;57291;37.520;15.106;2023-08-20T14:28:59;22.70;;;13.55;;
54555;SDS011;57291;37.520;15.106;2023-08-20T14:31:26;20.27;;;13.65;;
54555;SDS011;57291;37.520;15.106;2023-08-20T14:33:54;19.90;;;14.10;;
54555;SDS011;57291;37.520;15.106;2023-08-20T14:36:21;17.85;;;13.25;;
54555;SDS011;57291;37.520;15.106;2023-08-20T14:38:48;23.90;;;13.75;;
54555;SDS011;57291;37.520;15.106;2023-08-20T14:41:15;20.85;;;14.15;;
54555;SDS011;57291;37.520;15.106;2023-08-20T14:43:43;21.25;;;14.18;;
54555;SDS011;57291;37.520;15.106;2023-08-20T14:46:10;23.00;;;13.98;;